createdAt,value
2018-06-28T00:01:58.692Z,96.60
2018-06-28T00:04:28.664Z,96.70
2018-06-28T00:09:28.128Z,96.80
2018-06-28T00:11:57.656Z,96.80
2018-06-28T00:14:27.074Z,97.00
2018-06-28T00:16:56.533Z,96.90
2018-06-28T00:19:25.922Z,97.00
2018-06-28T00:21:55.319Z,97.10
2018-06-28T00:24:24.817Z,97.20
2018-06-28T00:26:54.195Z,97.20
2018-06-28T00:31:53.241Z,97.40
2018-06-28T00:34:23.230Z,97.50
2018-06-28T00:36:52.909Z,97.50
2018-06-28T00:41:51.272Z,97.80
2018-06-28T00:44:20.614Z,97.80
2018-06-28T00:46:50.064Z,97.90
2018-06-28T00:49:20.248Z,98.00
2018-06-28T00:56:47.790Z,98.30
2018-06-28T00:59:17.395Z,98.40
2018-06-28T01:01:46.870Z,98.50
2018-06-28T01:04:16.320Z,98.60
2018-06-28T01:06:45.709Z,98.70
2018-06-28T01:09:15.083Z,98.80
2018-06-28T01:11:44.534Z,98.90
2018-06-28T01:14:14.051Z,98.90
2018-06-28T01:19:13.148Z,99.10
2018-06-28T01:21:42.589Z,99.20
2018-06-28T01:24:12.358Z,99.50
2018-06-28T01:26:41.872Z,99.30
2018-06-28T01:29:12.397Z,99.30
2018-06-28T01:34:10.719Z,99.50
2018-06-28T01:39:11.167Z,99.60
2018-06-28T01:41:52.810Z,99.70
2018-06-28T01:44:22.296Z,99.80
2018-06-28T01:46:51.843Z,99.90
2018-06-28T01:49:21.232Z,99.90
2018-06-28T01:51:50.825Z,99.90
2018-06-28T01:54:20.297Z,99.90
2018-06-28T01:56:49.774Z,99.90
2018-06-28T01:59:19.180Z,99.90
2018-06-28T02:04:18.203Z,99.90
2018-06-28T02:06:47.643Z,99.90
2018-06-28T02:09:17.545Z,99.90
2018-06-28T02:11:47.881Z,99.90
2018-06-28T02:16:46.202Z,99.90
2018-06-28T02:19:15.514Z,99.90
2018-06-28T02:21:44.888Z,99.90
2018-06-28T02:26:43.195Z,99.90
2018-06-28T02:29:13.312Z,99.90
2018-06-28T02:34:11.612Z,99.90
2018-06-28T02:36:41.165Z,99.90
2018-06-28T02:39:10.452Z,99.90
2018-06-28T02:41:39.839Z,99.90
2018-06-28T02:44:09.872Z,99.90
2018-06-28T02:46:39.219Z,99.90
2018-06-28T02:51:38.458Z,99.90
2018-06-28T02:54:08.111Z,99.90
2018-06-28T02:56:37.513Z,99.90
2018-06-28T02:59:07.002Z,99.90
2018-06-28T03:01:36.292Z,99.90
2018-06-28T03:04:05.918Z,99.90
2018-06-28T03:06:35.331Z,99.90
2018-06-28T03:09:07.102Z,99.90
2018-06-28T03:11:36.436Z,99.90
2018-06-28T03:14:06.289Z,99.90
2018-06-28T03:16:35.752Z,99.90
2018-06-28T03:19:06.427Z,99.90
2018-06-28T03:21:36.443Z,99.90
2018-06-28T03:31:32.913Z,99.90
2018-06-28T03:34:02.251Z,99.90
2018-06-28T03:41:29.445Z,99.90
2018-06-28T03:43:59.353Z,99.90
2018-06-28T03:46:28.768Z,99.90
2018-06-28T03:48:58.116Z,99.90
2018-06-28T03:51:28.127Z,99.90
2018-06-28T03:53:57.549Z,99.90
2018-06-28T03:56:28.601Z,99.90
2018-06-28T03:58:58.129Z,99.90
2018-06-28T04:03:56.666Z,99.90
2018-06-28T04:06:26.182Z,99.90
2018-06-28T04:08:55.601Z,99.90
2018-06-28T04:11:24.871Z,99.90
2018-06-28T04:13:54.280Z,99.90
2018-06-28T04:16:23.634Z,99.90
2018-06-28T04:21:21.740Z,99.90
2018-06-28T04:23:51.128Z,99.90
2018-06-28T04:26:20.500Z,99.90
2018-06-28T04:28:49.706Z,99.90
2018-06-28T04:38:46.624Z,99.90
2018-06-28T04:41:15.973Z,99.90
2018-06-28T04:43:45.281Z,99.90
2018-06-28T04:46:14.626Z,99.90
2018-06-28T04:48:43.944Z,99.90
2018-06-28T04:51:13.304Z,99.90
2018-06-28T04:53:42.612Z,99.90
2018-06-28T04:56:12.004Z,99.90
2018-06-28T05:01:10.258Z,99.90
2018-06-28T05:03:39.545Z,99.90
2018-06-28T05:06:08.982Z,99.90
2018-06-28T05:08:38.925Z,99.90
2018-06-28T05:11:08.736Z,99.90
2018-06-28T05:13:38.418Z,99.90
2018-06-28T05:16:08.480Z,99.90
2018-06-28T05:18:38.287Z,99.90
2018-06-28T05:21:07.704Z,99.90
2018-06-28T05:23:37.532Z,99.90
2018-06-28T05:26:07.540Z,99.90
2018-06-28T05:28:36.889Z,99.90
2018-06-28T05:31:06.319Z,99.70
2018-06-28T05:33:35.571Z,99.40
2018-06-28T05:36:04.987Z,99.10
2018-06-28T05:38:34.373Z,99.10
2018-06-28T05:41:03.753Z,99.30
2018-06-28T05:43:33.196Z,98.70
2018-06-28T05:48:31.969Z,98.30
2018-06-28T05:51:01.351Z,97.60
2018-06-28T05:53:30.759Z,97.70
2018-06-28T05:56:00.156Z,97.40
2018-06-28T05:58:29.514Z,97.30
2018-06-28T06:03:27.731Z,96.70
2018-06-28T06:05:57.109Z,96.20
2018-06-28T06:15:53.215Z,95.20
2018-06-28T06:18:22.597Z,94.80
2018-06-28T06:20:51.942Z,94.50
2018-06-28T06:23:21.264Z,94.20
2018-06-28T06:25:50.865Z,94.10
2018-06-28T06:28:20.265Z,93.70
2018-06-28T06:33:18.765Z,93.50
2018-06-28T06:35:48.261Z,93.30
2018-06-28T06:38:18.191Z,92.90
2018-06-28T06:40:47.943Z,92.70
2018-06-28T06:43:18.011Z,91.60
2018-06-28T06:45:47.680Z,91.60
2018-06-28T06:48:17.095Z,91.30
2018-06-28T06:50:46.429Z,90.90
2018-06-28T06:53:16.509Z,90.80
2018-06-28T06:55:45.979Z,90.50
2018-06-28T06:58:15.244Z,90.40
2018-06-28T07:00:44.743Z,90.10
2018-06-28T07:03:14.099Z,89.80
2018-06-28T07:05:43.425Z,88.90
2018-06-28T07:08:22.907Z,88.90
2018-06-28T07:11:00.905Z,88.20
2018-06-28T07:13:36.505Z,86.90
2018-06-28T07:16:07.751Z,86.10
2018-06-28T07:18:37.323Z,86.00
2018-06-28T07:21:06.948Z,84.70
2018-06-28T07:23:36.374Z,83.90
2018-06-28T07:26:06.899Z,83.90
2018-06-28T07:28:36.463Z,83.70
2018-06-28T07:31:05.964Z,82.40
2018-06-28T07:33:35.236Z,81.70
2018-06-28T07:36:05.075Z,80.70
2018-06-28T07:41:03.452Z,79.40
2018-06-28T07:43:33.718Z,78.60
2018-06-28T07:46:03.044Z,78.00
2018-06-28T07:48:32.533Z,77.30
2018-06-28T07:51:02.408Z,75.80
2018-06-28T07:58:30.552Z,72.40
2018-06-28T08:00:59.966Z,70.60
2018-06-28T08:03:29.497Z,69.10
2018-06-28T08:05:58.864Z,67.80
2018-06-28T08:08:28.477Z,66.80
2018-06-28T08:10:57.806Z,64.90
2018-06-28T08:13:27.496Z,63.80
2018-06-28T08:15:57.194Z,62.50
2018-06-28T08:18:27.280Z,61.10
2018-06-28T08:20:56.658Z,60.30
2018-06-28T08:29:50.581Z,60.80
2018-06-28T08:32:41.808Z,60.80
2018-06-28T08:35:11.287Z,60.50
2018-06-28T08:37:41.493Z,59.00
2018-06-28T08:40:10.855Z,59.20
2018-06-28T08:42:40.233Z,59.10
2018-06-28T08:45:09.617Z,59.00
2018-06-28T08:52:39.028Z,56.80
2018-06-28T08:55:08.834Z,55.60
2018-06-28T09:00:08.315Z,53.30
2018-06-28T09:02:37.897Z,52.50
2018-06-28T09:07:37.192Z,51.60
2018-06-28T09:10:06.655Z,50.40
2018-06-28T09:12:36.041Z,50.80
2018-06-28T09:15:05.520Z,49.30
2018-06-28T09:20:04.624Z,48.70
2018-06-28T09:25:08.048Z,47.60
2018-06-28T09:27:39.947Z,47.10
2018-06-28T09:32:43.635Z,47.20
2018-06-28T09:35:18.298Z,47.90
2018-06-28T09:40:18.328Z,46.60
2018-06-28T09:42:47.743Z,46.60
2018-06-28T09:45:17.355Z,46.20
2018-06-28T09:48:04.952Z,46.10
2018-06-28T09:50:34.328Z,45.80
2018-06-28T09:53:04.315Z,45.90
2018-06-28T09:55:33.624Z,45.90
2018-06-28T09:58:02.985Z,46.40
2018-06-28T10:03:07.313Z,46.10
2018-06-28T10:05:36.640Z,45.80
2018-06-28T10:08:06.903Z,45.10
2018-06-28T10:10:36.321Z,45.10
2018-06-28T10:13:05.850Z,45.50
2018-06-28T10:15:35.480Z,45.40
2018-06-28T10:20:33.793Z,44.70
2018-06-28T10:23:03.456Z,43.90
2018-06-28T10:25:32.793Z,43.60
2018-06-28T10:28:02.164Z,43.90
2018-06-28T10:30:31.719Z,43.30
2018-06-28T10:33:01.109Z,43.10
2018-06-28T10:35:30.447Z,42.60
2018-06-28T10:37:59.826Z,42.50
2018-06-28T10:40:29.263Z,42.00
2018-06-28T10:42:58.592Z,41.70
2018-06-28T10:45:27.974Z,42.60
2018-06-28T10:50:26.275Z,42.60
2018-06-28T10:57:53.552Z,42.80
2018-06-28T11:00:22.986Z,42.80
2018-06-28T11:02:52.373Z,42.00
2018-06-28T11:05:21.732Z,42.40
2018-06-28T11:07:51.040Z,42.40
2018-06-28T11:10:20.504Z,42.30
2018-06-28T11:12:50.056Z,41.90
2018-06-28T11:15:19.465Z,42.20
2018-06-28T11:17:48.853Z,42.30
2018-06-28T11:27:45.198Z,42.60
2018-06-28T11:30:14.790Z,42.00
2018-06-28T11:35:14.039Z,40.90
2018-06-28T11:37:43.347Z,40.10
2018-06-28T11:40:12.658Z,39.20
2018-06-28T11:42:42.081Z,38.50
2018-06-28T11:47:40.426Z,39.00
2018-06-28T11:50:09.905Z,39.30
2018-06-28T11:57:37.173Z,40.00
2018-06-28T12:00:07.278Z,39.90
2018-06-28T12:02:36.589Z,39.60
2018-06-28T12:05:06.114Z,38.70
2018-06-28T12:07:35.526Z,38.50
2018-06-28T12:10:05.291Z,38.30
2018-06-28T12:12:34.629Z,38.50
2018-06-28T12:15:04.231Z,38.10
2018-06-28T12:17:33.589Z,36.80
2018-06-28T12:20:03.977Z,36.40
2018-06-28T12:22:33.393Z,37.00
2018-06-28T12:25:02.859Z,36.90
2018-06-28T12:27:33.031Z,37.50
2018-06-28T12:30:02.567Z,37.80
2018-06-28T12:32:32.643Z,36.80
2018-06-28T12:35:02.693Z,35.80
2018-06-28T12:37:32.079Z,34.70
2018-06-28T12:40:01.409Z,34.70
2018-06-28T12:45:01.558Z,36.80
2018-06-28T12:50:08.480Z,37.20
2018-06-28T12:52:45.784Z,38.10
2018-06-28T12:55:16.456Z,38.40
2018-06-28T13:00:16.020Z,36.80
2018-06-28T13:02:45.618Z,34.60
2018-06-28T13:05:15.889Z,34.90
2018-06-28T13:07:45.477Z,35.30
2018-06-28T13:12:45.296Z,36.20
2018-06-28T13:15:15.572Z,36.20
2018-06-28T13:20:14.559Z,37.00
2018-06-28T13:22:44.792Z,37.20
2018-06-28T13:25:14.262Z,37.00
2018-06-28T13:27:43.603Z,36.70
2018-06-28T13:32:41.803Z,36.00
2018-06-28T13:37:40.226Z,32.80
2018-06-28T13:40:09.763Z,31.90
2018-06-28T13:42:39.128Z,30.80
2018-06-28T13:45:08.719Z,30.60
2018-06-28T13:47:38.223Z,29.60
2018-06-28T13:55:05.543Z,30.40
2018-06-28T13:57:34.951Z,32.30
2018-06-28T14:00:04.834Z,33.50
2018-06-28T14:02:34.233Z,35.30
2018-06-28T14:05:03.613Z,35.90
2018-06-28T14:07:33.226Z,36.30
2018-06-28T14:10:03.184Z,36.40
2018-06-28T14:12:32.463Z,36.80
2018-06-28T14:15:01.839Z,35.40
2018-06-28T14:17:31.491Z,33.20
2018-06-28T14:20:00.898Z,31.50
2018-06-28T14:22:30.346Z,32.70
2018-06-28T14:27:29.118Z,32.40
2018-06-28T14:29:58.416Z,31.70
2018-06-28T14:32:27.837Z,31.50
2018-06-28T14:37:26.305Z,35.70
2018-06-28T14:39:55.747Z,37.90
2018-06-28T14:47:23.139Z,40.70
2018-06-28T14:57:19.697Z,42.40
2018-06-28T14:59:49.690Z,42.60
2018-06-28T15:02:19.071Z,42.60
2018-06-28T15:04:49.177Z,42.80
2018-06-28T15:07:18.612Z,41.80
2018-06-28T15:09:48.244Z,40.70
2018-06-28T15:17:15.424Z,39.10
2018-06-28T15:22:13.796Z,37.80
2018-06-28T15:24:43.397Z,38.20
2018-06-28T15:27:12.793Z,38.20
2018-06-28T15:29:42.346Z,38.80
2018-06-28T15:32:11.813Z,37.90
2018-06-28T15:34:41.187Z,37.00
2018-06-28T15:37:10.547Z,37.10
2018-06-28T15:39:40.006Z,37.20
2018-06-28T15:42:09.860Z,37.60
2018-06-28T15:44:39.344Z,38.20
2018-06-28T15:47:09.105Z,38.50
2018-06-28T15:49:38.465Z,38.60
2018-06-28T15:52:08.532Z,37.50
2018-06-28T15:54:37.898Z,36.30
2018-06-28T15:59:36.159Z,37.80
2018-06-28T16:02:06.269Z,38.40
2018-06-28T16:04:35.708Z,38.70
2018-06-28T16:07:05.173Z,38.90
2018-06-28T16:09:34.528Z,38.70
2018-06-28T16:12:03.907Z,39.50
2018-06-28T16:14:33.252Z,40.30
2018-06-28T16:17:02.690Z,40.70
2018-06-28T16:19:32.071Z,40.70
2018-06-28T16:22:01.530Z,39.90
2018-06-28T16:27:00.190Z,38.00
2018-06-28T16:29:29.705Z,36.20
2018-06-28T16:31:59.817Z,34.30
2018-06-28T16:34:29.241Z,33.10
2018-06-28T16:36:58.611Z,32.60
2018-06-28T16:39:28.129Z,31.80
2018-06-28T16:41:57.381Z,32.00
2018-06-28T16:46:55.583Z,32.60
2018-06-28T16:49:25.099Z,33.00
2018-06-28T16:51:54.677Z,34.00
2018-06-28T16:56:53.236Z,36.90
2018-06-28T16:59:22.720Z,37.70
2018-06-28T17:01:52.139Z,38.40
2018-06-28T17:04:21.654Z,38.30
2018-06-28T17:06:51.061Z,38.70
2018-06-28T17:09:20.384Z,39.30
2018-06-28T17:14:19.324Z,39.80
2018-06-28T17:16:48.721Z,40.00
2018-06-28T17:19:18.123Z,40.30
2018-06-28T17:21:47.521Z,40.70
2018-06-28T17:24:17.553Z,40.90
2018-06-28T17:26:46.990Z,41.10
2018-06-28T17:29:16.989Z,40.90
2018-06-28T17:31:46.364Z,41.00
2018-06-28T17:34:16.371Z,40.80
2018-06-28T17:36:45.794Z,40.80
2018-06-28T17:39:15.228Z,41.10
2018-06-28T17:41:44.863Z,41.30
2018-06-28T17:46:43.174Z,41.70
2018-06-28T17:49:12.487Z,41.90
2018-06-28T17:51:41.869Z,42.30
2018-06-28T17:56:40.155Z,42.50
2018-06-28T18:04:07.254Z,42.80
2018-06-28T18:06:36.650Z,42.70
2018-06-28T18:09:08.395Z,42.80
2018-06-28T18:11:38.792Z,42.90
2018-06-28T18:14:08.597Z,43.10
2018-06-28T18:16:38.444Z,43.40
2018-06-28T18:21:37.415Z,44.00
2018-06-28T18:24:06.938Z,43.30
2018-06-28T18:29:05.307Z,44.30
2018-06-28T18:34:03.634Z,45.30
2018-06-28T18:39:02.648Z,45.10
2018-06-28T18:41:32.012Z,45.20
2018-06-28T18:44:01.357Z,46.00
2018-06-28T18:46:31.015Z,45.70
2018-06-28T18:49:00.427Z,45.80
2018-06-28T18:53:59.027Z,46.10
2018-06-28T18:56:28.404Z,46.20
2018-06-28T18:58:59.506Z,46.20
2018-06-28T19:01:28.900Z,46.40
2018-06-28T19:06:27.707Z,46.60
2018-06-28T19:08:58.019Z,46.70
2018-06-28T19:14:02.356Z,47.30
2018-06-28T19:16:37.028Z,46.60
2018-06-28T19:19:07.638Z,46.80
2018-06-28T19:21:42.545Z,47.00
2018-06-28T19:29:16.613Z,47.30
2018-06-28T19:31:52.079Z,47.30
2018-06-28T19:34:21.743Z,47.50
2018-06-28T19:36:52.558Z,47.10
2018-06-28T19:39:29.020Z,47.90
2018-06-28T19:42:04.387Z,47.70
2018-06-28T19:44:35.887Z,47.80
2018-06-28T19:47:05.675Z,47.80
2018-06-28T19:49:41.842Z,47.90
2018-06-28T19:52:17.938Z,48.10
2018-06-28T19:54:47.404Z,48.30
2018-06-28T19:57:16.956Z,48.80
2018-06-28T19:59:47.426Z,49.10
2018-06-28T20:03:24.509Z,49.20
2018-06-28T20:08:36.795Z,49.30
2018-06-28T20:13:40.656Z,49.90
2018-06-28T20:17:17.012Z,50.10
2018-06-28T20:22:22.272Z,50.80
2018-06-28T20:24:51.787Z,51.10
2018-06-28T20:27:26.406Z,51.40
2018-06-28T20:32:35.436Z,52.00
2018-06-28T20:40:04.586Z,52.50
2018-06-28T20:45:40.946Z,53.00
2018-06-28T20:54:21.912Z,53.90
2018-06-28T20:56:51.254Z,54.00
2018-06-28T21:01:50.247Z,54.90
2018-06-28T21:04:19.903Z,54.60
2018-06-28T21:06:49.481Z,54.80
2018-06-28T21:11:48.100Z,55.30
2018-06-28T21:14:17.464Z,55.60
2018-06-28T21:16:47.018Z,55.70
2018-06-28T21:19:16.540Z,55.90
2018-06-28T21:21:45.897Z,56.00
2018-06-28T21:24:15.484Z,56.20
2018-06-28T21:26:45.025Z,56.50
2018-06-28T21:29:14.378Z,56.70
2018-06-28T21:31:44.588Z,57.10
2018-06-28T21:34:14.081Z,57.40
2018-06-28T21:36:44.288Z,57.70
2018-06-28T21:39:14.389Z,58.00
2018-06-28T21:41:44.020Z,58.10
2018-06-28T21:44:13.379Z,58.50
2018-06-28T21:51:41.227Z,59.40
2018-06-28T21:54:11.486Z,59.80
2018-06-28T21:59:09.822Z,60.80
2018-06-28T22:01:47.685Z,61.30
2018-06-28T22:06:47.042Z,62.20
2018-06-28T22:09:16.945Z,62.60
2018-06-28T22:11:46.257Z,63.20
2018-06-28T22:14:17.022Z,63.60
2018-06-28T22:16:46.859Z,64.10
2018-06-28T22:19:16.376Z,64.70
2018-06-28T22:24:14.712Z,66.00
2018-06-28T22:26:44.756Z,66.70
2018-06-28T22:29:15.079Z,67.30
2018-06-28T22:31:44.527Z,67.80
2018-06-28T22:34:14.007Z,68.30
2018-06-28T22:36:43.892Z,68.90
2018-06-28T22:39:13.988Z,69.40
2018-06-28T22:41:43.537Z,70.00
2018-06-28T22:44:12.953Z,70.40
2018-06-28T22:49:11.269Z,71.40
2018-06-28T22:51:40.627Z,72.40
2018-06-28T22:54:10.576Z,72.50
2018-06-28T22:56:39.915Z,73.10
2018-06-28T22:59:09.288Z,73.60
2018-06-28T23:01:39.475Z,74.00
2018-06-28T23:04:08.881Z,75.30
2018-06-28T23:14:07.048Z,76.60
2018-06-28T23:16:38.110Z,76.90
2018-06-28T23:19:07.573Z,77.30
2018-06-28T23:21:36.903Z,77.80
2018-06-28T23:24:06.332Z,78.30
2018-06-28T23:26:35.840Z,78.90
2018-06-28T23:34:04.326Z,80.40
2018-06-28T23:36:34.699Z,81.00
2018-06-28T23:41:33.085Z,82.10
2018-06-28T23:46:33.295Z,83.10
2018-06-28T23:49:03.230Z,83.60
2018-06-28T23:54:02.311Z,85.00
2018-06-28T23:56:31.542Z,84.80
